createdAt,value
2019-04-28T04:00:31.438Z,4.53
2019-04-28T04:03:00.898Z,4.70
2019-04-28T04:05:30.809Z,5.00
2019-04-28T04:08:00.901Z,4.60
2019-04-28T04:10:44.722Z,4.97
2019-04-28T04:13:24.775Z,5.00
2019-04-28T04:16:01.723Z,4.60
2019-04-28T04:18:41.797Z,5.07
2019-04-28T04:21:11.380Z,4.97
2019-04-28T04:23:41.169Z,4.70
2019-04-28T04:26:11.709Z,5.00
2019-04-28T04:28:41.839Z,5.03
2019-04-28T04:31:11.283Z,5.33
2019-04-28T04:33:41.123Z,5.30
2019-04-28T04:36:11.497Z,4.90
2019-04-28T04:38:45.864Z,5.60
2019-04-28T04:41:11.479Z,4.97
2019-04-28T04:43:41.553Z,5.60
2019-04-28T04:46:17.100Z,5.23
2019-04-28T04:48:46.340Z,5.60
2019-04-28T04:51:15.446Z,5.30
2019-04-28T04:53:44.273Z,5.70
2019-04-28T04:56:13.147Z,5.27
2019-04-28T04:58:41.954Z,5.10
2019-04-28T05:01:30.424Z,5.60
2019-04-28T05:04:03.858Z,5.17
2019-04-28T05:06:36.121Z,5.60
2019-04-28T05:09:07.599Z,5.00
2019-04-28T05:11:36.841Z,5.20
2019-04-28T05:14:07.622Z,5.40
2019-04-28T05:16:36.590Z,4.93
2019-04-28T05:19:05.497Z,5.20
2019-04-28T05:21:34.234Z,5.30
2019-04-28T05:24:27.986Z,5.00
2019-04-28T05:26:56.732Z,5.10
2019-04-28T05:29:26.683Z,5.50
2019-04-28T05:31:59.697Z,4.77
2019-04-28T05:34:26.826Z,4.90
2019-04-28T05:36:55.797Z,5.00
2019-04-28T05:39:24.577Z,5.27
2019-04-28T05:41:53.306Z,5.10
2019-04-28T05:44:22.357Z,5.30
2019-04-28T05:46:51.196Z,5.23
2019-04-28T05:49:36.835Z,5.07
2019-04-28T05:52:24.761Z,5.20
2019-04-28T05:54:59.810Z,5.30
2019-04-28T05:57:34.446Z,5.60
2019-04-28T06:00:26.223Z,7.47
2019-04-28T06:02:56.808Z,5.50
2019-04-28T06:05:25.738Z,5.60
2019-04-28T06:08:01.978Z,5.07
2019-04-28T06:10:30.851Z,4.97
2019-04-28T06:13:00.207Z,5.07
2019-04-28T06:15:29.482Z,5.13
2019-04-28T06:18:00.111Z,5.00
2019-04-28T06:20:30.358Z,4.97
2019-04-28T06:22:59.414Z,5.10
2019-04-28T06:25:28.266Z,5.20
2019-04-28T06:27:57.035Z,5.13
2019-04-28T06:30:25.922Z,5.20
2019-04-28T06:33:07.141Z,5.37
2019-04-28T06:35:25.426Z,4.97
2019-04-28T06:37:54.840Z,4.87
2019-04-28T06:40:23.613Z,4.77
2019-04-28T06:42:52.353Z,4.50
2019-04-28T06:45:21.106Z,4.70
2019-04-28T06:47:49.853Z,4.90
2019-04-28T06:50:18.645Z,4.70
2019-04-28T06:52:47.421Z,5.13
2019-04-28T06:55:16.559Z,5.50
2019-04-28T06:57:45.394Z,4.93
2019-04-28T07:00:14.400Z,5.07
2019-04-28T07:02:43.238Z,5.20
2019-04-28T07:05:12.045Z,5.33
2019-04-28T07:07:40.790Z,6.00
2019-04-28T07:10:10.034Z,5.77
2019-04-28T07:12:39.202Z,6.00
2019-04-28T07:15:08.149Z,5.90
2019-04-28T07:17:37.089Z,6.33
2019-04-28T07:20:24.292Z,7.43
2019-04-28T07:22:53.133Z,6.13
2019-04-28T07:25:21.878Z,6.63
2019-04-28T07:27:50.666Z,6.60
2019-04-28T07:30:19.584Z,6.33
2019-04-28T07:32:48.751Z,6.10
2019-04-28T07:35:17.519Z,6.70
2019-04-28T07:37:46.294Z,6.20
2019-04-28T07:40:15.244Z,6.33
2019-04-28T07:42:44.234Z,6.83
2019-04-28T07:45:13.330Z,7.47
2019-04-28T07:47:42.245Z,7.50
2019-04-28T07:50:11.143Z,7.50
2019-04-28T07:52:59.194Z,8.57
2019-04-28T07:55:28.079Z,8.13
2019-04-28T07:57:56.919Z,8.93
2019-04-28T08:00:28.594Z,8.27
2019-04-28T08:02:58.962Z,7.33
2019-04-28T08:05:28.665Z,7.23
2019-04-28T08:07:57.522Z,7.07
2019-04-28T08:10:26.545Z,7.93
2019-04-28T08:12:55.331Z,8.10
2019-04-28T08:15:24.790Z,7.90
2019-04-28T08:17:53.560Z,7.63
2019-04-28T08:20:22.416Z,8.73
2019-04-28T08:22:51.256Z,8.00
2019-04-28T08:25:20.045Z,8.50
2019-04-28T08:27:49.153Z,8.23
2019-04-28T08:30:18.068Z,8.30
2019-04-28T08:33:04.181Z,8.50
2019-04-28T08:35:33.014Z,7.97
2019-04-28T08:38:01.896Z,8.30
2019-04-28T08:40:30.778Z,7.73
2019-04-28T08:42:59.595Z,7.97
2019-04-28T08:45:28.510Z,8.40
2019-04-28T08:47:58.084Z,9.27
2019-04-28T08:50:27.010Z,10.03
2019-04-28T08:52:56.187Z,9.30
2019-04-28T08:55:25.290Z,8.93
2019-04-28T08:57:54.426Z,9.13
2019-04-28T09:00:23.915Z,8.87
2019-04-28T09:02:52.724Z,8.40
2019-04-28T09:05:21.664Z,9.00
2019-04-28T09:07:50.559Z,8.90
2019-04-28T09:10:19.402Z,7.70
2019-04-28T09:12:48.139Z,7.57
2019-04-28T09:15:17.115Z,7.40
2019-04-28T09:17:45.982Z,8.33
2019-04-28T09:20:16.601Z,7.87
2019-04-28T09:22:45.433Z,8.40
2019-04-28T09:25:14.259Z,8.27
2019-04-28T09:27:43.021Z,7.13
2019-04-28T09:30:12.089Z,7.30
2019-04-28T09:32:40.890Z,7.27
2019-04-28T09:35:11.166Z,6.83
2019-04-28T09:37:39.946Z,7.23
2019-04-28T09:40:12.859Z,8.30
2019-04-28T09:42:51.305Z,8.07
2019-04-28T09:45:26.074Z,8.33
2019-04-28T09:47:55.073Z,9.30
2019-04-28T09:50:23.995Z,9.83
2019-04-28T09:52:53.036Z,10.20
2019-04-28T09:55:21.858Z,10.87
2019-04-28T09:57:51.078Z,10.93
2019-04-28T10:00:20.349Z,11.90
2019-04-28T10:02:49.135Z,10.50
2019-04-28T10:05:18.075Z,11.80
2019-04-28T10:07:47.250Z,10.70
2019-04-28T10:10:17.526Z,11.13
2019-04-28T10:12:47.103Z,11.33
2019-04-28T10:15:16.130Z,11.50
2019-04-28T10:17:44.949Z,10.80
2019-04-28T10:20:13.914Z,12.30
2019-04-28T10:22:42.706Z,11.30
2019-04-28T10:25:11.922Z,12.37
2019-04-28T10:27:40.701Z,12.93
2019-04-28T10:30:10.607Z,12.97
2019-04-28T10:32:39.478Z,13.60
2019-04-28T10:35:09.515Z,13.10
2019-04-28T10:37:38.597Z,12.70
2019-04-28T10:42:49.534Z,12.10
2019-04-28T10:45:21.247Z,11.40
2019-04-28T10:47:50.237Z,9.50
2019-04-28T10:50:19.145Z,8.30
2019-04-28T10:52:47.983Z,7.87
2019-04-28T10:55:17.281Z,8.73
2019-04-28T10:57:46.521Z,9.73
2019-04-28T11:00:18.351Z,9.27
2019-04-28T11:02:47.265Z,8.93
2019-04-28T11:05:25.302Z,9.50
2019-04-28T11:07:54.624Z,9.23
2019-04-28T11:10:23.574Z,10.30
2019-04-28T11:12:53.244Z,9.77
2019-04-28T11:15:30.130Z,10.13
2019-04-28T11:17:59.202Z,12.47
2019-04-28T11:20:28.123Z,11.10
2019-04-28T11:22:56.902Z,9.17
2019-04-28T11:25:28.290Z,9.33
2019-04-28T11:27:57.352Z,8.60
2019-04-28T11:30:35.254Z,8.90
2019-04-28T11:33:21.049Z,9.70
2019-04-28T11:35:50.151Z,8.90
2019-04-28T11:38:19.092Z,10.70
2019-04-28T11:40:48.273Z,10.37
2019-04-28T11:43:17.750Z,10.43
2019-04-28T11:45:46.913Z,9.73
2019-04-28T11:48:16.518Z,9.10
2019-04-28T11:50:45.309Z,8.47
2019-04-28T11:53:14.151Z,8.50
2019-04-28T11:55:43.402Z,8.40
2019-04-28T11:58:13.750Z,8.30
2019-04-28T12:00:42.697Z,7.93
2019-04-28T12:03:12.051Z,8.37
2019-04-28T12:05:44.129Z,8.63
2019-04-28T12:08:12.873Z,8.10
2019-04-28T12:11:09.206Z,8.57
2019-04-28T12:14:03.841Z,8.50
2019-04-28T12:16:50.430Z,7.77
2019-04-28T12:19:23.875Z,7.77
2019-04-28T12:21:52.617Z,8.17
2019-04-28T12:24:21.618Z,7.93
2019-04-28T12:26:50.369Z,7.33
2019-04-28T12:29:19.189Z,8.27
2019-04-28T12:31:47.942Z,7.47
2019-04-28T12:34:16.685Z,6.97
2019-04-28T12:36:45.459Z,6.70
2019-04-28T12:39:14.298Z,6.67
2019-04-28T12:41:43.341Z,6.20
2019-04-28T12:44:12.115Z,6.03
2019-04-28T12:46:40.921Z,5.60
2019-04-28T12:49:16.522Z,5.53
2019-04-28T12:51:45.340Z,5.23
2019-04-28T12:54:16.053Z,5.63
2019-04-28T12:56:44.813Z,5.30
2019-04-28T12:59:19.066Z,5.27
2019-04-28T13:02:04.561Z,4.80
2019-04-28T13:04:40.194Z,5.50
2019-04-28T13:07:09.172Z,4.80
2019-04-28T13:09:38.010Z,4.97
2019-04-28T13:12:06.985Z,5.67
2019-04-28T13:14:36.054Z,5.13
2019-04-28T13:17:04.955Z,4.80
2019-04-28T13:19:33.790Z,4.70
2019-04-28T13:22:05.419Z,4.70
2019-04-28T13:24:33.490Z,4.67
2019-04-28T13:27:02.344Z,4.73
2019-04-28T13:29:31.140Z,4.13
2019-04-28T13:32:00.175Z,3.90
2019-04-28T13:34:30.578Z,3.67
2019-04-28T13:36:59.330Z,3.67
2019-04-28T13:39:33.755Z,3.53
2019-04-28T13:42:02.646Z,3.80
2019-04-28T13:45:08.898Z,3.80
2019-04-28T13:47:38.464Z,3.57
2019-04-28T13:50:27.956Z,3.03
2019-04-28T13:52:56.733Z,3.20
2019-04-28T13:55:43.172Z,3.03
2019-04-28T13:58:12.270Z,2.70
2019-04-28T14:01:02.379Z,2.80
2019-04-28T14:03:51.028Z,2.90
2019-04-28T14:06:28.108Z,2.73
2019-04-28T14:08:51.426Z,2.90
2019-04-28T14:11:20.232Z,2.90
2019-04-28T14:13:49.203Z,2.80
2019-04-28T14:16:18.324Z,2.90
2019-04-28T14:18:47.451Z,2.90
2019-04-28T14:21:16.610Z,2.83
2019-04-28T14:23:48.512Z,2.60
2019-04-28T14:26:17.423Z,2.60
2019-04-28T14:28:46.329Z,2.73
2019-04-28T14:31:15.114Z,2.87
2019-04-28T14:33:44.300Z,2.87
2019-04-28T14:36:13.814Z,2.60
2019-04-28T14:38:43.192Z,2.80
2019-04-28T14:41:12.343Z,3.07
2019-04-28T14:43:41.119Z,3.00
2019-04-28T14:46:10.173Z,2.80
2019-04-28T14:48:38.945Z,3.10
2019-04-28T14:51:08.761Z,2.87
2019-04-28T14:53:37.663Z,2.80
2019-04-28T14:56:07.413Z,3.30
2019-04-28T14:58:36.569Z,3.40
2019-04-28T15:01:18.272Z,3.33
2019-04-28T15:03:49.717Z,3.00
2019-04-28T15:06:27.098Z,2.97
2019-04-28T15:09:17.742Z,3.30
2019-04-28T15:11:56.634Z,3.43
2019-04-28T15:14:25.527Z,3.30
2019-04-28T15:16:54.941Z,3.37
2019-04-28T15:19:23.794Z,3.27
2019-04-28T15:21:54.661Z,3.20
2019-04-28T15:24:24.051Z,3.67
2019-04-28T15:26:52.910Z,3.30
2019-04-28T15:29:21.991Z,3.30
2019-04-28T15:31:51.234Z,3.43
2019-04-28T15:34:20.101Z,3.83
2019-04-28T15:36:48.873Z,4.17
2019-04-28T15:39:17.702Z,3.80
2019-04-28T15:41:46.518Z,3.33
2019-04-28T15:44:15.349Z,3.00
2019-04-28T15:46:44.633Z,3.23
2019-04-28T15:49:13.447Z,3.50
2019-04-28T15:51:42.195Z,3.47
2019-04-28T15:54:11.076Z,3.53
2019-04-28T15:56:43.517Z,6.10
2019-04-28T15:59:12.277Z,3.13
2019-04-28T16:01:41.078Z,3.30
2019-04-28T16:04:10.020Z,3.30
2019-04-28T16:06:38.754Z,3.40
2019-04-28T16:09:12.264Z,3.30
2019-04-28T16:11:42.124Z,3.10
2019-04-28T16:14:10.905Z,3.07
2019-04-28T16:16:40.025Z,3.13
2019-04-28T16:19:08.865Z,2.90
2019-04-28T16:21:37.687Z,3.10
2019-04-28T16:24:06.669Z,2.90
2019-04-28T16:26:35.577Z,3.17
2019-04-28T16:29:04.889Z,3.40
2019-04-28T16:31:33.721Z,3.50
2019-04-28T16:34:02.459Z,3.20
2019-04-28T16:36:31.298Z,3.57
2019-04-28T16:39:00.450Z,3.20
2019-04-28T16:41:29.240Z,3.30
2019-04-28T16:44:01.886Z,3.20
2019-04-28T16:46:30.916Z,3.43
2019-04-28T16:48:59.661Z,3.50
2019-04-28T16:51:28.562Z,3.90
2019-04-28T16:53:57.617Z,3.43
2019-04-28T16:56:51.609Z,3.30
2019-04-28T16:59:39.475Z,3.87
2019-04-28T17:02:12.908Z,3.73
2019-04-28T17:04:41.673Z,4.20
2019-04-28T17:07:10.413Z,3.60
2019-04-28T17:09:39.156Z,3.80
2019-04-28T17:12:07.982Z,3.50
2019-04-28T17:14:36.758Z,3.90
2019-04-28T17:17:05.612Z,3.80
2019-04-28T17:19:34.997Z,4.00
2019-04-28T17:22:03.880Z,3.57
2019-04-28T17:24:32.717Z,3.70
2019-04-28T17:27:01.918Z,3.80
2019-04-28T17:29:31.571Z,3.97
2019-04-28T17:32:00.490Z,3.60
2019-04-28T17:34:29.296Z,4.60
2019-04-28T17:36:58.142Z,3.80
2019-04-28T17:39:28.250Z,3.73
2019-04-28T17:41:57.018Z,3.60
2019-04-28T17:44:26.244Z,4.03
2019-04-28T17:46:55.154Z,4.00
2019-04-28T17:49:29.937Z,3.77
2019-04-28T17:51:59.693Z,4.10
2019-04-28T17:54:28.703Z,3.87
2019-04-28T17:56:57.450Z,3.80
2019-04-28T17:59:26.487Z,4.10
2019-04-28T18:02:23.006Z,4.13
2019-04-28T18:05:00.677Z,4.20
2019-04-28T18:07:32.408Z,3.97
2019-04-28T18:10:01.569Z,4.87
2019-04-28T18:12:30.667Z,4.80
2019-04-28T18:15:14.315Z,4.60
2019-04-28T18:18:17.639Z,5.10
2019-04-28T18:20:46.876Z,4.90
2019-04-28T18:23:15.616Z,5.50
2019-04-28T18:25:44.395Z,5.00
2019-04-28T18:28:13.249Z,5.00
2019-04-28T18:30:48.349Z,4.63
2019-04-28T18:33:35.329Z,5.40
2019-04-28T18:36:09.072Z,5.87
2019-04-28T18:38:46.852Z,5.17
2019-04-28T18:41:34.725Z,5.30
2019-04-28T18:44:08.226Z,5.70
2019-04-28T18:46:37.009Z,5.67
2019-04-28T18:49:05.822Z,7.13
2019-04-28T18:51:35.149Z,7.00
2019-04-28T18:54:04.170Z,7.20
2019-04-28T18:56:32.910Z,7.00
2019-04-28T18:59:01.965Z,7.30
2019-04-28T19:01:53.845Z,6.80
2019-04-28T19:04:22.685Z,6.93
2019-04-28T19:07:04.090Z,6.90
2019-04-28T19:09:39.950Z,6.77
2019-04-28T19:12:19.586Z,6.90
2019-04-28T19:14:54.420Z,6.20
2019-04-28T19:17:33.920Z,6.83
2019-04-28T19:20:02.690Z,6.90
2019-04-28T19:22:34.321Z,6.63
2019-04-28T19:25:03.089Z,6.33
2019-04-28T19:27:31.910Z,6.47
2019-04-28T19:30:01.462Z,6.17
2019-04-28T19:32:30.224Z,6.30
2019-04-28T19:34:58.962Z,6.37
2019-04-28T19:37:27.990Z,6.43
2019-04-28T19:39:56.746Z,6.40
2019-04-28T19:42:26.178Z,6.27
2019-04-28T19:44:55.333Z,6.90
2019-04-28T19:47:24.111Z,7.30
2019-04-28T19:49:52.997Z,28.50
2019-04-28T19:52:21.988Z,11.70
2019-04-28T19:55:14.572Z,8.10
2019-04-28T19:57:51.514Z,7.50
2019-04-28T20:00:25.061Z,7.33
2019-04-28T20:02:53.899Z,7.83
2019-04-28T20:05:22.758Z,7.70
2019-04-28T20:07:51.833Z,7.63
2019-04-28T20:10:20.978Z,6.93
2019-04-28T20:12:49.884Z,7.87
2019-04-28T20:15:18.733Z,27.07
2019-04-28T20:17:47.757Z,18.60
2019-04-28T20:20:16.821Z,7.70
2019-04-28T20:22:45.644Z,8.60
2019-04-28T20:25:14.397Z,8.13
2019-04-28T20:27:43.165Z,7.83
2019-04-28T20:30:12.288Z,8.80
2019-04-28T20:32:45.967Z,8.43
2019-04-28T20:35:17.625Z,22.03
2019-04-28T20:37:52.372Z,9.87
2019-04-28T20:40:27.187Z,8.37
2019-04-28T20:43:05.290Z,9.80
2019-04-28T20:45:34.136Z,8.93
2019-04-28T20:48:02.975Z,8.03
2019-04-28T20:50:31.765Z,8.80
2019-04-28T20:53:00.550Z,9.17
2019-04-28T20:55:29.330Z,9.00
2019-04-28T20:57:58.183Z,48.77
